Time;durP1;ratioP1;P1;durP2;ratioP2;P2;SDS_P1;SDS_P2;PMS_P1;PMS_P2;Temp;Humidity;BMP_temperature;BMP_pressure;BME280_temperature;BME280_humidity;BME280_pressure;Samples;Min_cycle;Max_cycle;Signal;HPM_P1;HPM_P2
2022/06/15 00:01:14;;;;;;;;;8.00;8.00;;;;;21.19;46.00;101296.19;110273;1264;18754;-48
2022/06/15 00:03:41;;;;;;;;;8.00;8.00;;;;;21.22;46.14;101294.98;110279;1264;21350;-47
2022/06/15 00:06:09;;;;;;;;;9.00;9.00;;;;;21.18;46.16;101291.80;110318;1265;22721;-47
2022/06/15 00:08:36;;;;;;;;;6.67;6.67;;;;;21.15;46.05;101290.33;110323;1265;22543;-47
2022/06/15 00:11:03;;;;;;;;;9.67;9.00;;;;;21.13;46.01;101289.45;110298;1264;22590;-48
2022/06/15 00:13:30;;;;;;;;;8.00;6.00;;;;;21.15;46.20;101286.17;110296;1264;18629;-47
2022/06/15 00:15:58;;;;;;;;;8.33;8.00;;;;;21.13;46.10;101283.11;110295;1264;19559;-48
2022/06/15 00:18:28;;;;;;;;;9.33;8.00;;;;;21.15;46.01;101283.89;110301;1264;19533;-47
2022/06/15 00:20:55;;;;;;;;;8.00;6.00;;;;;21.15;45.91;101282.54;110245;1264;18618;-48
2022/06/15 00:23:22;;;;;;;;;8.00;8.00;;;;;21.17;45.89;101282.47;110267;1264;18778;-48
2022/06/15 00:25:50;;;;;;;;;8.00;8.00;;;;;21.13;45.97;101280.01;110155;1264;19839;-48
2022/06/15 00:28:17;;;;;;;;;8.00;8.00;;;;;21.11;45.78;101276.15;110282;1265;18513;-47
2022/06/15 00:30:45;;;;;;;;;6.67;6.67;;;;;21.09;45.81;101277.34;110262;1264;23632;-47
2022/06/15 00:33:12;;;;;;;;;8.67;8.67;;;;;21.08;46.08;101279.53;110284;1264;19628;-48
2022/06/15 00:35:39;;;;;;;;;9.00;8.00;;;;;21.08;45.90;101279.79;110302;1264;18501;-46
2022/06/15 00:38:07;;;;;;;;;7.33;6.67;;;;;21.05;45.89;101284.43;110299;1264;18729;-47
2022/06/15 00:40:34;;;;;;;;;8.00;7.33;;;;;21.02;46.06;101284.03;110310;1264;19467;-47
2022/06/15 00:43:02;;;;;;;;;8.33;6.00;;;;;21.02;46.17;101279.44;110163;1264;21823;-47
2022/06/15 00:45:29;;;;;;;;;8.00;8.00;;;;;21.05;45.94;101282.04;110244;1264;22210;-46
2022/06/15 00:47:56;;;;;;;;;7.33;7.33;;;;;21.07;45.76;101282.95;110277;1264;19534;-47
2022/06/15 00:50:23;;;;;;;;;6.67;6.00;;;;;21.05;45.68;101279.65;110326;1264;18632;-47
2022/06/15 00:52:51;;;;;;;;;10.00;9.00;;;;;21.08;45.57;101283.43;110268;1264;22304;-47
2022/06/15 00:55:18;;;;;;;;;6.00;6.00;;;;;21.06;45.45;101280.36;110268;1264;19985;-46
2022/06/15 00:57:45;;;;;;;;;7.00;6.00;;;;;21.06;45.72;101279.96;110261;1263;23987;-47
2022/06/15 01:00:13;;;;;;;;;9.00;9.00;;;;;21.06;45.45;101275.73;110281;1265;18803;-47
2022/06/15 01:02:40;;;;;;;;;9.00;8.00;;;;;21.11;45.42;101280.02;110317;1263;21088;-48
2022/06/15 01:05:07;;;;;;;;;8.00;8.00;;;;;21.11;45.28;101279.86;110318;1265;22824;-47
2022/06/15 01:07:35;;;;;;;;;6.00;6.00;;;;;21.07;45.32;101282.55;110280;1265;19069;-49
2022/06/15 01:10:03;;;;;;;;;9.00;9.00;;;;;21.02;45.39;101278.34;110265;1265;19625;-49
2022/06/15 01:12:30;;;;;;;;;8.00;8.00;;;;;21.00;45.30;101275.71;110271;1264;19397;-47
2022/06/15 01:14:57;;;;;;;;;9.50;7.00;;;;;20.99;45.55;101272.73;110255;1264;22179;-46
2022/06/15 01:17:24;;;;;;;;;8.00;8.00;;;;;21.00;45.29;101276.13;110329;1264;19680;-47
2022/06/15 01:19:52;;;;;;;;;8.00;7.33;;;;;21.01;45.56;101275.61;110273;1265;18395;-47
2022/06/15 01:22:19;;;;;;;;;12.00;9.00;;;;;21.01;45.40;101272.55;110258;1264;18665;-46
2022/06/15 01:24:47;;;;;;;;;6.00;6.00;;;;;21.00;45.51;101270.64;110280;1264;19610;-50
2022/06/15 01:27:14;;;;;;;;;10.00;10.00;;;;;20.99;45.48;101274.52;110259;1264;18763;-48
2022/06/15 01:29:41;;;;;;;;;8.67;8.00;;;;;21.01;45.31;101267.78;110275;1264;19039;-50
2022/06/15 01:32:09;;;;;;;;;9.33;8.67;;;;;20.97;45.27;101266.44;110306;1265;20107;-46
2022/06/15 01:34:36;;;;;;;;;8.00;8.00;;;;;21.00;45.56;101263.55;110258;1264;18601;-45
2022/06/15 01:37:03;;;;;;;;;11.00;9.00;;;;;21.03;45.38;101265.02;110258;1264;18765;-48
2022/06/15 01:39:31;;;;;;;;;9.00;8.00;;;;;21.02;45.27;101263.73;110278;1264;19542;-48
2022/06/15 01:41:58;;;;;;;;;10.00;9.00;;;;;20.96;45.64;101263.64;110256;1264;20722;-47
2022/06/15 01:44:25;;;;;;;;;9.00;9.00;;;;;20.98;45.52;101263.05;110324;1265;18840;-47
2022/06/15 01:46:52;;;;;;;;;9.00;8.50;;;;;20.97;45.69;101262.17;110295;1265;19605;-48
2022/06/15 01:49:20;;;;;;;;;8.33;8.33;;;;;20.99;45.52;101266.19;110289;1264;18434;-48
2022/06/15 01:51:48;;;;;;;;;9.00;9.00;;;;;20.98;45.53;101258.06;110286;1264;19286;-47
2022/06/15 01:54:15;;;;;;;;;8.33;8.00;;;;;20.92;45.74;101263.36;110294;1264;21718;-46
2022/06/15 01:56:43;;;;;;;;;11.00;10.33;;;;;20.96;45.78;101268.03;110299;1264;18521;-47
2022/06/15 01:59:10;;;;;;;;;8.00;8.00;;;;;20.99;45.57;101269.44;110303;1264;18978;-46
2022/06/15 02:01:38;;;;;;;;;10.33;9.67;;;;;20.99;45.57;101271.48;110285;1264;19535;-47
2022/06/15 02:04:05;;;;;;;;;8.50;8.00;;;;;20.96;45.62;101272.73;110144;1264;18459;-48
2022/06/15 02:06:33;;;;;;;;;9.67;9.00;;;;;20.94;45.75;101272.16;110169;1264;18910;-49
2022/06/15 02:09:00;;;;;;;;;9.00;9.00;;;;;20.93;45.67;101271.42;110266;1264;19536;-46
2022/06/15 02:11:28;;;;;;;;;9.00;9.00;;;;;20.92;46.05;101277.18;110322;1265;18526;-47
2022/06/15 02:13:55;;;;;;;;;9.00;9.00;;;;;20.88;45.79;101276.83;110298;1264;23059;-47
2022/06/15 02:16:22;;;;;;;;;10.33;9.00;;;;;20.89;45.93;101278.02;110290;1264;19699;-47
2022/06/15 02:18:49;;;;;;;;;8.50;8.50;;;;;20.93;45.59;101280.66;110259;1264;22893;-48
2022/06/15 02:21:17;;;;;;;;;9.33;8.00;;;;;21.16;45.44;101285.23;110278;1264;18719;-47
2022/06/15 02:23:44;;;;;;;;;9.67;9.67;;;;;21.23;45.15;101291.18;110281;1265;22777;-45
2022/06/15 02:26:11;;;;;;;;;9.00;8.50;;;;;21.17;45.22;101289.70;110331;1264;18620;-48
2022/06/15 02:28:39;;;;;;;;;10.00;9.33;;;;;21.33;45.09;101287.02;110279;1264;18919;-47
2022/06/15 02:31:06;;;;;;;;;8.00;8.00;;;;;21.41;44.66;101283.09;110272;1264;22720;-48
2022/06/15 02:33:33;;;;;;;;;6.00;6.00;;;;;21.26;44.83;101281.23;110273;1264;21003;-47
2022/06/15 02:36:01;;;;;;;;;9.67;9.00;;;;;21.19;44.97;101279.83;110298;1265;20139;-48
2022/06/15 02:38:28;;;;;;;;;8.00;8.00;;;;;21.11;45.14;101283.11;110326;1265;19472;-47
2022/06/15 02:40:55;;;;;;;;;9.00;8.00;;;;;21.06;45.43;101286.20;110266;1265;18623;-49
2022/06/15 02:43:22;;;;;;;;;9.00;8.33;;;;;21.06;45.47;101283.64;110281;1264;18855;-47
2022/06/15 02:45:50;;;;;;;;;9.00;9.00;;;;;21.01;45.44;101281.27;110300;1265;20212;-48
2022/06/15 02:48:17;;;;;;;;;9.00;9.00;;;;;21.02;45.58;101289.13;110273;1264;22974;-47
2022/06/15 02:50:44;;;;;;;;;6.00;6.00;;;;;21.12;45.45;101289.52;110342;1264;18812;-46
2022/06/15 02:53:12;;;;;;;;;9.00;9.00;;;;;21.10;45.38;101288.44;110292;1264;20938;-47
2022/06/15 02:55:39;;;;;;;;;6.00;6.00;;;;;21.11;45.42;101294.42;110266;1264;20789;-48
2022/06/15 02:58:06;;;;;;;;;9.00;8.00;;;;;21.05;45.60;101292.26;110302;1265;18775;-47
2022/06/15 03:00:34;;;;;;;;;8.00;8.00;;;;;21.03;45.56;101290.79;110297;1264;20917;-46
2022/06/15 03:03:01;;;;;;;;;8.67;8.00;;;;;21.03;45.82;101294.77;110296;1265;18548;-49
2022/06/15 03:05:28;;;;;;;;;10.67;9.00;;;;;21.07;45.61;101296.41;110336;1265;18760;-46
2022/06/15 03:07:55;;;;;;;;;8.00;6.00;;;;;21.13;45.48;101298.14;110239;1264;19619;-47
2022/06/15 03:10:23;;;;;;;;;9.33;8.67;;;;;21.04;45.66;101298.52;110297;1264;18824;-47
2022/06/15 03:12:50;;;;;;;;;9.00;8.67;;;;;21.01;45.77;101296.84;110283;1264;19168;-47
2022/06/15 03:15:17;;;;;;;;;8.33;8.33;;;;;21.03;45.72;101297.86;110283;1264;19588;-47
2022/06/15 03:17:45;;;;;;;;;8.00;8.00;;;;;21.01;45.95;101301.20;110273;1264;18474;-46
2022/06/15 03:20:12;;;;;;;;;8.33;8.00;;;;;21.08;45.80;101301.60;110336;1264;24013;-47
2022/06/15 03:22:39;;;;;;;;;8.33;8.00;;;;;21.07;45.73;101303.30;110260;1264;22718;-48
2022/06/15 03:25:06;;;;;;;;;10.00;9.00;;;;;21.07;46.01;101302.89;110303;1264;18687;-47
2022/06/15 03:27:34;;;;;;;;;8.00;8.00;;;;;21.07;45.89;101303.55;110268;1264;18931;-48
2022/06/15 03:30:04;;;;;;;;;8.33;8.00;;;;;21.10;45.93;101306.42;110275;1264;22440;-47
2022/06/15 03:32:31;;;;;;;;;9.67;8.67;;;;;21.14;45.94;101302.09;110332;1264;20940;-48
2022/06/15 03:34:58;;;;;;;;;8.00;8.00;;;;;21.14;46.00;101303.63;110298;1264;18755;-48
2022/06/15 03:37:26;;;;;;;;;8.00;7.33;;;;;21.24;45.74;101304.18;110306;1264;19488;-49
2022/06/15 03:39:54;;;;;;;;;6.67;6.67;;;;;21.24;45.78;101305.12;110307;1264;18530;-48
2022/06/15 03:42:22;;;;;;;;;9.00;7.00;;;;;21.18;45.95;101307.96;110317;1264;20383;-47
2022/06/15 03:44:49;;;;;;;;;8.33;8.00;;;;;21.15;46.19;101308.16;110318;1265;21660;-47
2022/06/15 03:47:17;;;;;;;;;8.33;8.33;;;;;21.19;45.96;101307.42;110327;1264;18457;-47
2022/06/15 03:49:44;;;;;;;;;7.33;7.33;;;;;21.31;45.98;101305.42;110283;1264;18629;-47
2022/06/15 03:52:11;;;;;;;;;5.00;5.00;;;;;21.45;45.67;101308.27;110278;1265;20905;-48
2022/06/15 03:54:39;;;;;;;;;8.33;6.00;;;;;21.54;45.35;101306.58;110286;1264;18731;-48
2022/06/15 03:57:06;;;;;;;;;8.33;6.67;;;;;21.55;45.29;101306.44;110278;1264;19573;-46
2022/06/15 03:59:33;;;;;;;;;8.00;8.00;;;;;21.59;45.25;101306.52;110321;1265;20407;-47
2022/06/15 04:02:01;;;;;;;;;8.00;8.00;;;;;21.54;45.29;101305.63;110271;1265;23231;-48
2022/06/15 04:04:28;;;;;;;;;10.00;8.00;;;;;21.58;45.25;101306.31;110286;1264;19027;-47
2022/06/15 04:06:56;;;;;;;;;8.00;8.00;;;;;21.52;45.24;101308.38;110286;1264;21942;-47
2022/06/15 04:09:23;;;;;;;;;9.67;9.67;;;;;21.55;45.29;101305.42;110271;1264;18829;-50
2022/06/15 04:14:35;;;;;;;;;11.33;10.00;;;;;21.53;45.46;101309.92;110333;1264;19536;-48
2022/06/15 04:17:02;;;;;;;;;9.00;8.00;;;;;21.56;45.33;101308.88;110284;1264;18481;-47
2022/06/15 04:19:29;;;;;;;;;10.00;8.50;;;;;21.52;45.49;101311.28;110298;1264;18846;-47
2022/06/15 04:21:57;;;;;;;;;12.67;10.00;;;;;21.56;45.48;101312.17;110265;1264;19618;-47
2022/06/15 04:24:24;;;;;;;;;9.00;8.00;;;;;21.54;45.43;101313.27;110295;1264;18717;-48
2022/06/15 04:26:51;;;;;;;;;10.00;9.33;;;;;21.56;45.61;101317.11;110228;1265;18792;-49
2022/06/15 04:29:18;;;;;;;;;10.00;9.00;;;;;21.62;45.53;101315.01;110323;1265;19584;-51
2022/06/15 04:31:46;;;;;;;;;9.50;9.00;;;;;21.63;45.67;101313.98;110302;1265;18824;-46
2022/06/15 04:34:13;;;;;;;;;12.00;10.00;;;;;21.51;45.73;101311.48;110270;1263;19176;-47
2022/06/15 04:36:40;;;;;;;;;8.50;8.00;;;;;21.52;45.99;101303.38;110292;1264;19411;-47
2022/06/15 04:39:08;;;;;;;;;13.33;10.00;;;;;21.47;46.06;101301.89;110320;1264;18710;-47
2022/06/15 04:41:36;;;;;;;;;12.00;9.00;;;;;21.44;46.29;101300.73;110342;1264;19006;-48
2022/06/15 04:44:04;;;;;;;;;9.50;9.00;;;;;21.38;46.35;101303.21;110285;1264;19843;-49
2022/06/15 04:46:32;;;;;;;;;8.67;8.67;;;;;21.35;46.61;101301.60;110256;1264;19095;-47
2022/06/15 04:49:00;;;;;;;;;8.33;8.33;;;;;21.48;46.51;101302.68;110289;1264;18702;-48
2022/06/15 04:51:29;;;;;;;;;12.00;11.00;;;;;21.58;46.38;101303.76;110270;1264;19604;-48
2022/06/15 04:53:56;;;;;;;;;9.67;9.33;;;;;21.60;46.35;101307.02;110332;1264;18906;-48
2022/06/15 04:56:24;;;;;;;;;12.00;11.00;;;;;21.54;46.73;101311.89;110281;1264;19026;-46
2022/06/15 04:58:51;;;;;;;;;12.00;10.00;;;;;21.60;46.71;101314.33;110279;1264;19626;-47
2022/06/15 05:01:18;;;;;;;;;10.00;10.00;;;;;21.59;46.78;101315.98;110288;1264;22644;-47
2022/06/15 05:03:45;;;;;;;;;12.67;12.00;;;;;21.65;46.70;101321.56;110277;1263;20888;-47
2022/06/15 05:06:13;;;;;;;;;12.00;10.00;;;;;21.63;47.08;101319.23;110277;1265;19610;-47
2022/06/15 05:08:40;;;;;;;;;9.00;9.00;;;;;21.71;46.91;101321.33;110316;1264;18907;-48
2022/06/15 05:11:08;;;;;;;;;11.00;10.00;;;;;21.78;46.98;101324.55;110284;1264;22913;-47
2022/06/15 05:13:35;;;;;;;;;9.00;9.00;;;;;21.80;47.02;101324.81;110285;1264;19474;-47
2022/06/15 05:16:02;;;;;;;;;9.67;9.67;;;;;21.82;47.10;101324.09;110198;1264;19388;-47
2022/06/15 05:18:30;;;;;;;;;10.00;10.00;;;;;21.85;47.15;101326.80;110286;1264;21494;-46
2022/06/15 05:20:58;;;;;;;;;9.33;9.33;;;;;21.89;47.09;101328.52;110260;1264;19521;-47
2022/06/15 05:23:25;;;;;;;;;10.00;9.00;;;;;21.95;47.40;101331.37;110303;1265;18805;-47
2022/06/15 05:25:53;;;;;;;;;10.00;9.00;;;;;21.81;48.05;101331.27;110219;1265;18708;-47
2022/06/15 05:28:20;;;;;;;;;8.00;6.67;;;;;21.73;48.63;101331.42;110270;1264;22348;-47
2022/06/15 05:30:47;;;;;;;;;8.00;8.00;;;;;21.70;48.73;101331.89;110257;1264;18991;-48
2022/06/15 05:33:14;;;;;;;;;9.00;8.50;;;;;21.54;49.38;101335.45;110181;1264;18712;-47
2022/06/15 05:35:42;;;;;;;;;8.67;8.00;;;;;21.55;49.93;101336.79;110243;1265;20549;-48
2022/06/15 05:38:09;;;;;;;;;8.00;8.00;;;;;21.85;50.17;101333.04;110322;1264;18418;-48
2022/06/15 05:40:36;;;;;;;;;9.33;9.33;;;;;22.08;50.24;101346.27;110271;1263;19994;-47
2022/06/15 05:43:04;;;;;;;;;8.00;8.00;;;;;22.23;49.97;101346.61;109991;1264;324295;-48
2022/06/15 05:45:31;;;;;;;;;6.00;6.00;;;;;22.29;49.27;101339.98;110285;1264;18424;-46
2022/06/15 05:47:58;;;;;;;;;13.00;13.00;;;;;22.31;49.35;101334.27;110267;1264;18806;-46
2022/06/15 05:50:26;;;;;;;;;8.67;8.00;;;;;22.31;49.76;101336.98;110320;1264;22738;-47
2022/06/15 05:52:53;;;;;;;;;10.00;9.00;;;;;22.28;49.53;101338.71;110217;1264;18792;-46
2022/06/15 05:55:20;;;;;;;;;8.00;8.00;;;;;22.28;49.47;101337.65;110190;1265;18752;-46
2022/06/15 05:57:47;;;;;;;;;8.00;8.00;;;;;22.32;49.57;101332.81;110103;1265;20038;-48
2022/06/15 06:00:15;;;;;;;;;10.67;10.00;;;;;22.35;49.51;101341.08;110148;1264;18523;-48
2022/06/15 06:02:42;;;;;;;;;8.00;7.33;;;;;22.33;49.21;101340.63;110295;1263;18982;-49
2022/06/15 06:05:09;;;;;;;;;9.00;7.33;;;;;22.33;49.24;101340.34;110166;1264;19507;-49
2022/06/15 06:07:37;;;;;;;;;9.00;8.00;;;;;22.32;48.71;101338.10;110237;1264;19592;-49
2022/06/15 06:10:04;;;;;;;;;9.00;7.00;;;;;22.33;48.58;101343.31;110261;1264;18782;-50
2022/06/15 06:12:31;;;;;;;;;10.00;10.00;;;;;22.33;48.60;101343.70;110115;1264;20674;-49
2022/06/15 06:14:58;;;;;;;;;7.33;7.33;;;;;22.34;48.82;101345.02;110236;1264;18532;-48
2022/06/15 06:17:26;;;;;;;;;10.00;9.67;;;;;22.34;48.59;101345.57;110320;1264;19595;-47
2022/06/15 06:19:53;;;;;;;;;9.00;9.00;;;;;22.37;48.65;101345.23;110157;1264;19564;-46
2022/06/15 06:22:20;;;;;;;;;7.00;7.00;;;;;22.45;48.50;101342.89;110232;1264;18851;-48
2022/06/15 06:24:47;;;;;;;;;9.33;9.33;;;;;22.46;48.44;101342.38;110221;1264;18841;-48
2022/06/15 06:27:14;;;;;;;;;11.50;10.50;;;;;22.44;48.37;101345.52;110290;1264;19596;-49
2022/06/15 06:29:42;;;;;;;;;10.00;10.00;;;;;22.42;48.34;101343.79;110318;1264;18539;-48
2022/06/15 06:32:09;;;;;;;;;9.50;9.00;;;;;22.40;48.48;101344.84;110268;1265;19419;-50
2022/06/15 06:34:36;;;;;;;;;10.33;9.67;;;;;22.41;48.47;101347.85;110261;1265;21132;-46
2022/06/15 06:37:05;;;;;;;;;8.33;7.00;;;;;22.42;48.18;101352.64;110255;1265;18491;-47
2022/06/15 06:39:33;;;;;;;;;9.00;7.50;;;;;22.45;48.15;101355.63;110217;1264;18778;-47
2022/06/15 06:42:00;;;;;;;;;10.33;10.33;;;;;22.49;48.34;101347.20;110267;1264;19901;-48
2022/06/15 06:44:27;;;;;;;;;10.00;9.67;;;;;22.53;49.13;101345.34;110263;1264;19413;-49
2022/06/15 06:46:54;;;;;;;;;12.33;11.00;;;;;22.55;49.85;101345.30;110187;1264;23051;-48
2022/06/15 06:49:22;;;;;;;;;13.67;11.00;;;;;22.55;49.82;101346.27;110182;1264;19659;-47
2022/06/15 06:51:49;;;;;;;;;10.00;9.33;;;;;22.50;49.63;101348.07;110233;1264;18761;-48
2022/06/15 06:54:16;;;;;;;;;10.50;10.00;;;;;22.46;49.67;101342.40;110216;1264;18772;-47
2022/06/15 06:56:43;;;;;;;;;9.67;9.00;;;;;22.43;49.69;101341.81;110269;1264;19612;-49
2022/06/15 06:59:11;;;;;;;;;10.00;9.00;;;;;22.38;49.86;101346.73;110204;1264;18752;-47
2022/06/15 07:01:38;;;;;;;;;9.00;8.33;;;;;22.27;50.22;101354.15;109963;1262;23229;-46
2022/06/15 07:04:05;;;;;;;;;15.00;11.33;;;;;22.14;50.29;101355.05;110183;1264;19687;-48
2022/06/15 07:06:33;;;;;;;;;196.33;142.33;;;;;22.23;50.58;101354.29;110140;1264;18383;-50
2022/06/15 07:09:01;;;;;;;;;208.00;149.00;;;;;22.39;50.45;101350.14;110084;1264;19033;-49
2022/06/15 07:11:29;;;;;;;;;122.67;96.67;;;;;22.54;50.11;101349.13;110249;1264;19723;-46
2022/06/15 07:13:56;;;;;;;;;98.67;71.33;;;;;22.63;49.52;101346.06;110164;1264;19015;-45
2022/06/15 07:16:23;;;;;;;;;96.33;70.33;;;;;22.70;49.75;101343.48;110170;1264;19518;-48
2022/06/15 07:18:51;;;;;;;;;120.33;92.00;;;;;22.74;49.70;101344.81;110206;1264;24051;-48
2022/06/15 07:21:18;;;;;;;;;96.00;70.67;;;;;22.78;49.68;101342.02;110161;1265;19022;-49
2022/06/15 07:23:45;;;;;;;;;78.50;58.00;;;;;22.84;50.01;101340.45;110198;1264;18950;-49
2022/06/15 07:26:13;;;;;;;;;66.33;50.67;;;;;22.89;50.30;101343.16;110164;1265;19591;-49
2022/06/15 07:28:40;;;;;;;;;62.33;48.33;;;;;22.95;50.77;101341.92;110109;1264;22847;-50
2022/06/15 07:31:07;;;;;;;;;51.67;39.67;;;;;23.01;51.19;101344.13;110187;1264;18717;-49
2022/06/15 07:33:34;;;;;;;;;50.67;39.33;;;;;22.93;50.51;101344.49;110249;1264;22144;-48
2022/06/15 07:36:02;;;;;;;;;30.00;26.50;;;;;22.82;50.44;101343.92;110197;1264;21668;-46
2022/06/15 07:38:29;;;;;;;;;20.33;17.00;;;;;22.62;50.31;101345.04;110265;1264;18975;-47
2022/06/15 07:40:57;;;;;;;;;13.50;13.50;;;;;22.52;50.65;101351.69;110251;1264;23458;-49
2022/06/15 07:43:25;;;;;;;;;15.67;13.00;;;;;22.51;50.88;101349.27;110242;1265;18751;-48
2022/06/15 07:45:52;;;;;;;;;15.00;14.00;;;;;22.50;50.89;101349.38;110215;1264;18840;-48
2022/06/15 07:51:04;;;;;;;;;11.33;10.67;;;;;22.48;50.51;101345.98;110172;1264;18748;-49
2022/06/15 07:53:31;;;;;;;;;10.00;9.33;;;;;22.49;50.57;101338.51;110219;1264;19231;-48
2022/06/15 07:55:59;;;;;;;;;9.00;7.33;;;;;22.55;50.31;101338.80;110093;1264;22736;-48
2022/06/15 07:58:26;;;;;;;;;10.00;9.67;;;;;22.56;50.10;101335.80;110026;1264;18750;-47
2022/06/15 08:00:53;;;;;;;;;9.00;8.67;;;;;22.60;49.75;101334.41;110179;1265;20168;-47
2022/06/15 08:03:21;;;;;;;;;11.00;11.00;;;;;22.68;49.81;101331.70;110217;1265;22906;-48
2022/06/15 08:05:48;;;;;;;;;7.00;6.00;;;;;22.62;49.84;101328.90;110258;1265;19667;-46
2022/06/15 08:08:16;;;;;;;;;5.50;5.50;;;;;22.54;49.75;101331.64;110236;1264;22009;-49
2022/06/15 08:10:43;;;;;;;;;9.67;9.67;;;;;22.58;49.82;101327.71;110268;1264;19633;-49
2022/06/15 08:13:10;;;;;;;;;9.00;9.00;;;;;22.64;49.79;101325.73;110217;1264;18559;-48
2022/06/15 08:15:38;;;;;;;;;7.00;6.00;;;;;22.68;49.84;101331.27;110229;1264;22425;-51
2022/06/15 08:18:05;;;;;;;;;8.33;8.33;;;;;22.65;49.73;101332.50;110277;1265;25193;-48
2022/06/15 08:20:35;;;;;;;;;10.00;10.00;;;;;22.60;49.79;101330.91;110300;1264;18518;-48
2022/06/15 08:23:03;;;;;;;;;7.00;7.00;;;;;22.65;49.73;101334.17;110215;1264;19027;-48
2022/06/15 08:25:30;;;;;;;;;8.00;6.50;;;;;22.70;49.59;101337.94;110223;1264;19741;-49
2022/06/15 08:27:57;;;;;;;;;7.67;7.00;;;;;22.75;49.45;101340.57;110216;1265;18557;-47
2022/06/15 08:30:25;;;;;;;;;6.67;6.67;;;;;22.78;49.30;101342.02;110186;1265;19034;-49
2022/06/15 08:32:52;;;;;;;;;9.33;8.00;;;;;22.77;48.91;101340.25;110205;1264;19987;-48
2022/06/15 08:35:19;;;;;;;;;7.67;7.00;;;;;22.76;48.82;101344.25;110189;1264;22683;-48
2022/06/15 08:37:46;;;;;;;;;6.50;6.00;;;;;22.75;48.42;101341.77;110228;1264;18968;-47
2022/06/15 08:40:14;;;;;;;;;5.33;5.33;;;;;22.73;48.20;101344.77;110290;1264;20986;-49
2022/06/15 08:42:41;;;;;;;;;6.00;6.00;;;;;22.72;48.10;101343.04;110267;1264;18498;-49
2022/06/15 08:45:09;;;;;;;;;6.33;6.33;;;;;22.71;47.91;101343.02;110050;1264;19977;-49
2022/06/15 08:47:36;;;;;;;;;7.00;7.00;;;;;22.66;47.55;101340.42;109963;1263;20278;-51
2022/06/15 08:50:04;;;;;;;;;6.33;6.33;;;;;22.65;47.68;101340.19;110083;1264;18605;-48
2022/06/15 08:52:31;;;;;;;;;6.67;6.00;;;;;22.72;47.63;101345.39;110215;1264;21733;-48
2022/06/15 08:54:58;;;;;;;;;5.00;5.00;;;;;22.73;47.59;101340.91;110218;1265;19677;-47
2022/06/15 08:57:25;;;;;;;;;5.67;5.67;;;;;22.74;47.35;101340.29;110155;1264;19110;-49
2022/06/15 08:59:53;;;;;;;;;6.33;6.00;;;;;22.75;47.13;101344.77;110006;1264;22601;-48
2022/06/15 09:02:20;;;;;;;;;5.00;5.00;;;;;22.78;47.01;101339.48;110205;1264;21037;-48
2022/06/15 09:04:47;;;;;;;;;5.50;5.00;;;;;22.77;46.81;101338.89;110214;1264;18624;-50
2022/06/15 09:07:14;;;;;;;;;6.00;6.00;;;;;22.82;46.85;101336.03;110214;1264;20843;-48
2022/06/15 09:09:42;;;;;;;;;5.33;5.33;;;;;22.87;46.97;101339.14;110158;1264;19559;-48
2022/06/15 09:14:54;;;;;;;;;9.00;9.00;;;;;22.88;46.62;101338.66;109968;1264;18713;-49
2022/06/15 09:17:21;;;;;;;;;8.33;7.67;;;;;22.75;46.29;101338.21;110208;1264;19565;-49
2022/06/15 09:19:49;;;;;;;;;10.00;9.00;;;;;22.76;46.43;101334.61;110162;1263;18613;-48
2022/06/15 09:22:17;;;;;;;;;9.67;9.67;;;;;22.85;46.31;101330.94;110235;1264;22386;-50
2022/06/15 09:24:47;;;;;;;;;9.00;8.33;;;;;22.85;45.87;101334.05;110221;1264;20954;-49
2022/06/15 09:27:15;;;;;;;;;6.67;6.33;;;;;22.85;45.64;101335.41;110181;1265;18489;-49
2022/06/15 09:29:44;;;;;;;;;8.67;8.67;;;;;22.87;45.61;101328.63;110300;1265;18894;-48
2022/06/15 09:32:12;;;;;;;;;8.33;6.67;;;;;22.96;45.54;101335.64;110169;1264;19442;-47
2022/06/15 09:34:39;;;;;;;;;8.33;7.67;;;;;23.03;45.58;101334.35;110140;1265;18614;-48
2022/06/15 09:37:07;;;;;;;;;6.00;5.50;;;;;23.07;45.63;101328.95;110196;1264;18731;-47
2022/06/15 09:39:36;;;;;;;;;7.00;7.00;;;;;23.12;45.35;101329.89;110112;1264;19786;-48
2022/06/15 09:42:03;;;;;;;;;8.33;8.33;;;;;23.12;45.15;101326.70;110201;1265;18420;-48
2022/06/15 09:44:30;;;;;;;;;7.00;7.00;;;;;23.15;45.12;101328.36;110228;1264;18990;-48
2022/06/15 09:46:58;;;;;;;;;6.00;6.00;;;;;23.12;44.97;101326.36;110216;1264;19541;-47
2022/06/15 09:49:25;;;;;;;;;12.33;11.00;;;;;23.09;44.70;101324.03;110108;1264;20627;-48
2022/06/15 09:51:52;;;;;;;;;8.00;7.67;;;;;23.08;44.16;101317.44;109938;1264;19078;-48
2022/06/15 09:54:20;;;;;;;;;10.33;9.00;;;;;23.16;44.19;101319.69;110102;1265;19565;-47
2022/06/15 09:56:48;;;;;;;;;10.67;10.00;;;;;23.29;44.21;101314.45;110246;1263;18463;-47
2022/06/15 09:59:15;;;;;;;;;13.50;13.50;;;;;23.27;43.86;101314.84;110258;1264;18674;-49
2022/06/15 10:01:43;;;;;;;;;12.33;12.33;;;;;23.21;43.83;101311.14;110258;1265;19611;-48
2022/06/15 10:04:10;;;;;;;;;10.67;10.00;;;;;23.19;44.07;101308.84;110256;1264;22449;-49
2022/06/15 10:06:37;;;;;;;;;10.00;10.00;;;;;23.20;44.02;101315.98;110276;1264;18995;-48
2022/06/15 10:09:04;;;;;;;;;9.00;9.00;;;;;23.11;44.22;101316.26;110233;1264;19473;-47
2022/06/15 10:11:32;;;;;;;;;14.00;13.67;;;;;22.99;44.37;101315.06;110329;1263;18838;-49
2022/06/15 10:14:00;;;;;;;;;13.00;12.00;;;;;23.01;44.72;101320.45;110250;1264;18931;-47
2022/06/15 10:16:27;;;;;;;;;9.00;8.00;;;;;22.99;44.95;101318.95;110196;1265;19935;-48
2022/06/15 10:18:54;;;;;;;;;12.33;12.33;;;;;22.86;45.27;101323.77;110267;1264;18878;-50
2022/06/15 10:21:21;;;;;;;;;9.50;8.00;;;;;22.77;45.36;101329.36;110288;1264;18807;-48
2022/06/15 10:23:49;;;;;;;;;10.67;9.00;;;;;22.69;45.55;101325.96;110298;1264;19470;-48
2022/06/15 10:26:17;;;;;;;;;7.00;7.00;;;;;22.63;45.55;101324.70;110296;1264;22858;-48
2022/06/15 10:28:44;;;;;;;;;9.00;9.00;;;;;22.65;45.52;101325.39;110278;1265;18814;-48
2022/06/15 10:31:11;;;;;;;;;10.00;10.00;;;;;22.73;45.35;101327.80;110268;1264;21234;-48
2022/06/15 10:33:39;;;;;;;;;10.67;10.00;;;;;22.80;44.77;101325.76;110276;1264;18558;-48
2022/06/15 10:36:06;;;;;;;;;10.00;10.00;;;;;22.82;44.70;101322.95;110260;1263;18972;-47
2022/06/15 10:38:33;;;;;;;;;10.67;10.33;;;;;22.82;44.71;101321.68;110285;1264;19488;-48
2022/06/15 10:41:45;;;;;;;;;10.00;10.00;;;;;22.83;44.79;101320.42;110253;1264;18684;-48
2022/06/15 10:43:49;;;;;;;;;7.33;7.33;;;;;22.85;44.57;101321.20;110259;1264;18840;-48
2022/06/15 10:46:16;;;;;;;;;9.33;8.67;;;;;22.82;44.63;101319.66;110268;1264;19372;-48
2022/06/15 10:48:44;;;;;;;;;9.00;9.00;;;;;22.82;44.68;101319.11;110190;1264;18693;-47
2022/06/15 10:51:11;;;;;;;;;10.00;9.33;;;;;22.80;44.65;101316.98;110242;1264;18883;-48
2022/06/15 10:53:38;;;;;;;;;6.67;6.67;;;;;22.79;44.77;101318.89;110260;1264;19754;-48
2022/06/15 11:04:20;;;;;;;;;7.67;7.67;;;;;22.93;45.31;101315.48;110180;1264;18493;-48
2022/06/15 11:06:48;;;;;;;;;12.00;11.67;;;;;22.94;45.42;101312.61;110251;1264;18903;-49
2022/06/15 11:09:15;;;;;;;;;12.67;10.00;;;;;22.94;45.15;101314.66;110239;1264;22357;-50
2022/06/15 11:11:42;;;;;;;;;9.33;8.67;;;;;22.97;45.28;101313.93;110246;1264;18729;-49
2022/06/15 11:14:09;;;;;;;;;8.50;8.50;;;;;23.01;45.22;101310.80;110255;1264;19936;-49
2022/06/15 11:19:22;;;;;;;;;10.33;10.33;;;;;23.01;45.01;101309.68;110167;1264;19907;-48
2022/06/15 11:21:49;;;;;;;;;9.33;9.33;;;;;22.99;44.70;101307.70;110118;1264;22752;-47
2022/06/15 11:24:16;;;;;;;;;9.00;9.00;;;;;23.03;44.82;101310.90;110234;1264;19516;-49
2022/06/15 11:26:54;;;;;;;;;10.00;10.00;;;;;23.01;44.78;101304.61;110175;1264;22129;-48
2022/06/15 11:29:22;;;;;;;;;8.33;8.33;;;;;22.98;45.00;101301.11;110248;1264;18897;-47
2022/06/15 11:31:49;;;;;;;;;10.00;10.00;;;;;22.98;44.72;101296.50;110205;1264;19950;-49